Time;durP1;ratioP1;P1;durP2;ratioP2;P2;SDS_P1;SDS_P2;PMS_P1;PMS_P2;Temp;Humidity;BMP_temperature;BMP_pressure;BME280_temperature;BME280_humidity;BME280_pressure;Samples;Min_cycle;Max_cycle;Signal;HPM_P1;HPM_P2
2023/06/19 00:00:37;;;;;;;8.63;5.47;;;;;;;25.12;43.44;100763.56;5034042;28;20742;-71
2023/06/19 00:03:02;;;;;;;6.90;5.18;;;;;;;25.14;43.31;100779.38;5032661;28;20261;-71
2023/06/19 00:05:27;;;;;;;6.43;5.40;;;;;;;25.15;43.38;100773.03;5033697;28;20029;-71
2023/06/19 00:07:53;;;;;;;6.63;5.20;;;;;;;25.13;43.29;100772.38;5033381;28;20281;-74
2023/06/19 00:10:18;;;;;;;7.25;5.45;;;;;;;25.14;43.54;100782.88;5034140;28;20737;-69
2023/06/19 00:12:43;;;;;;;6.38;5.25;;;;;;;25.12;43.15;100786.75;5033696;28;20551;-70
2023/06/19 00:15:10;;;;;;;6.57;5.50;;;;;;;25.13;43.29;100791.91;5033220;28;20033;-69
2023/06/19 00:17:37;;;;;;;7.40;5.15;;;;;;;25.13;43.33;100791.91;5033164;28;20762;-69
2023/06/19 00:20:04;;;;;;;6.22;5.05;;;;;;;25.12;43.63;100798.22;5032849;28;20645;-71
2023/06/19 00:22:29;;;;;;;7.20;5.30;;;;;;;25.13;43.57;100809.72;5033442;28;20484;-71
2023/06/19 00:24:54;;;;;;;5.95;4.88;;;;;;;25.12;43.35;100808.06;5032957;28;20025;-73
2023/06/19 00:27:20;;;;;;;6.85;5.50;;;;;;;25.10;43.54;100799.38;5033500;28;20029;-70
2023/06/19 00:29:45;;;;;;;6.50;5.15;;;;;;;25.12;43.28;100805.41;5032952;28;20433;-70
2023/06/19 00:32:10;;;;;;;6.65;5.20;;;;;;;25.10;43.24;100808.25;5033004;28;20382;-71
2023/06/19 00:34:36;;;;;;;6.97;5.10;;;;;;;25.10;43.62;100810.06;5033107;28;20394;-76
2023/06/19 00:37:02;;;;;;;6.05;4.68;;;;;;;25.10;43.41;100816.25;5032965;28;20867;-72
2023/06/19 00:39:28;;;;;;;6.30;5.05;;;;;;;25.10;43.62;100821.56;5032922;28;20045;-71
2023/06/19 00:41:55;;;;;;;6.20;5.07;;;;;;;25.11;43.77;100823.22;5032800;28;20033;-69
2023/06/19 00:44:20;;;;;;;7.30;5.43;;;;;;;25.10;43.72;100818.91;5032600;28;20253;-74
2023/06/19 00:46:46;;;;;;;6.95;5.03;;;;;;;25.09;43.36;100821.75;5032828;28;20687;-70
2023/06/19 00:49:13;;;;;;;6.60;5.18;;;;;;;25.10;43.60;100829.56;5032227;28;20450;-73
2023/06/19 00:51:38;;;;;;;7.22;5.28;;;;;;;25.09;43.50;100832.41;5032401;28;20098;-70
2023/06/19 00:54:05;;;;;;;6.60;5.30;;;;;;;25.07;43.74;100827.25;5033030;28;20041;-70
2023/06/19 00:56:32;;;;;;;6.18;5.00;;;;;;;25.07;43.41;100829.91;5032821;28;20073;-69
2023/06/19 00:58:57;;;;;;;6.43;4.82;;;;;;;25.08;43.75;100838.72;5032400;28;20033;-68
2023/06/19 01:01:26;;;;;;;7.82;5.20;;;;;;;25.07;43.29;100839.72;5032573;28;20037;-74
2023/06/19 01:03:51;;;;;;;6.28;5.05;;;;;;;25.08;43.72;100838.72;5032260;28;20044;-71
2023/06/19 01:06:27;;;;;;;7.10;4.95;;;;;;;25.06;43.70;100843.41;5032386;28;20382;-69
2023/06/19 01:09:04;;;;;;;8.13;5.07;;;;;;;25.07;43.60;100845.06;5032459;28;20522;-73
2023/06/19 01:11:42;;;;;;;7.20;5.15;;;;;;;25.06;43.69;100843.41;5031999;28;20102;-69
2023/06/19 01:14:21;;;;;;;6.40;4.82;;;;;;;25.05;43.84;100844.41;5032628;28;20025;-69
2023/06/19 01:16:47;;;;;;;6.70;5.15;;;;;;;25.06;43.56;100843.41;5032177;28;20041;-70
2023/06/19 01:19:20;;;;;;;7.03;5.10;;;;;;;25.06;43.44;100846.06;5032549;28;20106;-73
2023/06/19 01:21:46;;;;;;;6.65;4.88;;;;;;;25.07;43.72;100842.38;5030733;28;20473;-72
2023/06/19 01:24:12;;;;;;;8.07;4.97;;;;;;;25.07;43.48;100845.06;5032419;28;20029;-74
2023/06/19 01:26:38;;;;;;;6.50;4.70;;;;;;;25.05;43.80;100847.06;5032450;28;20042;-71
2023/06/19 01:29:04;;;;;;;6.28;4.75;;;;;;;25.04;43.80;100840.91;5032179;28;20037;-71
2023/06/19 01:31:44;;;;;;;6.20;4.60;;;;;;;25.03;43.66;100843.75;5032211;28;20033;-70
2023/06/19 01:34:12;;;;;;;5.82;4.40;;;;;;;25.04;43.56;100842.72;5031725;28;20026;-73
2023/06/19 01:36:38;;;;;;;7.63;4.80;;;;;;;25.05;43.95;100847.06;5031848;28;20060;-74
2023/06/19 01:39:04;;;;;;;7.30;4.40;;;;;;;25.03;43.66;100847.25;5031944;28;20083;-68
2023/06/19 01:41:31;;;;;;;6.47;4.45;;;;;;;25.05;43.80;100863.06;5031602;28;20052;-70
2023/06/19 01:43:57;;;;;;;6.13;4.53;;;;;;;25.05;43.94;100852.41;5031331;28;20467;-71
2023/06/19 01:46:23;;;;;;;6.20;4.38;;;;;;;25.02;43.78;100861.56;5032301;28;20358;-70
2023/06/19 01:48:48;;;;;;;6.65;4.45;;;;;;;24.99;43.98;100854.75;5031568;28;20026;-71
2023/06/19 01:51:13;;;;;;;5.50;3.95;;;;;;;25.03;43.75;100867.75;5032213;28;20037;-71
2023/06/19 01:53:39;;;;;;;6.07;4.25;;;;;;;25.05;44.00;100866.56;5031743;28;20036;-73
2023/06/19 01:56:04;;;;;;;5.93;4.15;;;;;;;25.03;43.82;100865.91;5032826;28;20031;-69
2023/06/19 01:58:30;;;;;;;6.22;4.10;;;;;;;25.02;43.98;100874.06;5030630;28;20115;-73
2023/06/19 02:00:55;;;;;;;5.32;3.85;;;;;;;25.02;44.15;100877.56;5031877;28;20043;-74
2023/06/19 02:03:20;;;;;;;5.47;3.90;;;;;;;25.02;44.07;100874.88;5031251;28;20485;-69
2023/06/19 02:05:46;;;;;;;5.78;4.00;;;;;;;25.02;44.23;100874.88;5032718;28;20449;-71
2023/06/19 02:08:11;;;;;;;5.65;4.10;;;;;;;25.01;43.81;100875.91;5030856;28;20032;-70
2023/06/19 02:10:36;;;;;;;5.43;4.10;;;;;;;25.02;44.29;100890.06;5031955;28;20029;-69
2023/06/19 02:13:02;;;;;;;6.07;4.30;;;;;;;25.01;44.29;100886.56;5031698;28;20262;-69
2023/06/19 02:15:27;;;;;;;5.60;3.80;;;;;;;25.02;44.06;100896.22;5031862;28;20266;-70
2023/06/19 02:17:55;;;;;;;5.13;3.60;;;;;;;24.99;44.08;100872.56;5030195;28;20060;-74
2023/06/19 02:20:26;;;;;;;5.00;3.58;;;;;;;24.98;43.92;100868.25;5030286;28;20397;-70
2023/06/19 02:22:52;;;;;;;5.63;3.88;;;;;;;24.97;44.12;100880.72;5029990;28;20112;-68
2023/06/19 02:25:18;;;;;;;5.60;3.80;;;;;;;24.98;44.29;100890.41;5032167;28;20112;-70
2023/06/19 02:27:43;;;;;;;5.47;3.60;;;;;;;24.99;44.33;100886.75;5031405;28;20068;-70
2023/06/19 02:30:09;;;;;;;5.47;3.80;;;;;;;24.99;44.54;100876.09;5031297;28;20874;-73
2023/06/19 02:32:34;;;;;;;5.18;3.42;;;;;;;25.00;44.15;100884.91;5030810;28;20032;-70
2023/06/19 02:34:59;;;;;;;4.95;3.35;;;;;;;25.01;44.41;100880.38;5031207;28;20033;-69
2023/06/19 02:37:25;;;;;;;5.05;3.40;;;;;;;25.01;44.52;100891.06;5030103;28;20080;-70
2023/06/19 02:39:50;;;;;;;6.38;3.38;;;;;;;25.00;44.13;100882.22;5022246;28;20112;-74
2023/06/19 02:42:15;;;;;;;5.00;3.42;;;;;;;24.99;44.55;100881.41;5030201;28;20041;-75
2023/06/19 02:44:42;;;;;;;5.00;3.00;;;;;;;25.00;44.35;100890.22;5030218;28;20072;-69
2023/06/19 02:47:07;;;;;;;4.93;3.08;;;;;;;25.00;44.58;100887.56;5029783;28;20329;-70
2023/06/19 02:49:33;;;;;;;5.38;3.28;;;;;;;24.98;44.30;100894.91;5030587;28;20033;-69
2023/06/19 02:51:58;;;;;;;4.93;3.05;;;;;;;24.97;44.66;100883.41;5031005;28;20035;-70
2023/06/19 02:54:23;;;;;;;4.87;2.73;;;;;;;24.99;44.76;100894.75;5030861;28;20067;-72
2023/06/19 02:56:48;;;;;;;5.10;3.00;;;;;;;24.98;44.79;100894.91;5030062;28;20262;-71
2023/06/19 02:59:14;;;;;;;5.00;3.03;;;;;;;25.00;44.85;100900.91;5029996;28;20274;-70
2023/06/19 03:01:39;;;;;;;4.40;2.60;;;;;;;24.98;44.89;100898.41;5030295;28;20311;-71
2023/06/19 03:04:04;;;;;;;4.73;2.80;;;;;;;25.00;44.42;100903.56;5031026;28;20299;-69
2023/06/19 03:06:30;;;;;;;4.10;2.40;;;;;;;24.99;44.84;100905.41;5031008;28;20261;-69
2023/06/19 03:08:56;;;;;;;4.97;2.75;;;;;;;24.97;44.67;100901.22;5033036;28;20022;-69
2023/06/19 03:11:21;;;;;;;4.32;2.72;;;;;;;24.99;45.01;100912.56;5034723;28;20102;-74
2023/06/19 03:13:50;;;;;;;5.43;2.75;;;;;;;24.97;44.87;100910.06;5034850;28;20059;-70
2023/06/19 03:16:16;;;;;;;5.13;2.72;;;;;;;24.95;44.70;100916.56;5034450;28;20060;-73
2023/06/19 03:18:45;;;;;;;5.38;2.50;;;;;;;24.97;44.94;100927.88;5033836;28;20520;-74
2023/06/19 03:21:11;;;;;;;5.43;3.00;;;;;;;24.95;45.07;100925.38;5033990;28;20083;-75
2023/06/19 03:23:37;;;;;;;4.78;2.40;;;;;;;24.95;44.78;100913.91;5034018;28;20132;-73
2023/06/19 03:26:03;;;;;;;4.63;2.50;;;;;;;24.96;44.87;100926.25;5033467;28;20111;-70
2023/06/19 03:28:28;;;;;;;4.22;2.65;;;;;;;24.97;45.20;100927.88;5034418;28;20278;-73
2023/06/19 03:30:54;;;;;;;5.63;2.65;;;;;;;24.94;44.82;100922.88;5034007;28;20612;-69
2023/06/19 03:33:19;;;;;;;4.00;2.30;;;;;;;24.93;45.20;100914.06;5034349;28;20037;-73
2023/06/19 03:35:45;;;;;;;4.90;2.50;;;;;;;24.95;45.03;100916.56;5034528;28;20044;-71
2023/06/19 03:38:10;;;;;;;4.30;2.67;;;;;;;24.95;44.97;100925.38;5033585;28;20037;-71
2023/06/19 03:40:35;;;;;;;4.25;2.60;;;;;;;24.94;44.84;100925.56;5034310;28;20060;-69
2023/06/19 03:43:00;;;;;;;4.63;2.60;;;;;;;24.95;44.89;100940.56;5034038;28;20036;-69
2023/06/19 03:45:26;;;;;;;5.10;2.60;;;;;;;24.93;45.08;100943.41;5033311;28;20274;-73
2023/06/19 03:47:51;;;;;;;4.93;2.60;;;;;;;24.95;45.15;100943.22;5033723;28;20286;-71
2023/06/19 03:50:16;;;;;;;3.95;2.28;;;;;;;24.94;45.08;100947.75;5033708;28;20269;-74
2023/06/19 03:52:42;;;;;;;4.40;2.40;;;;;;;24.92;45.18;100947.06;5033925;28;20063;-70
2023/06/19 03:55:07;;;;;;;4.23;2.43;;;;;;;24.95;45.14;100953.91;5034222;28;20040;-71
2023/06/19 03:57:32;;;;;;;5.40;2.80;;;;;;;24.90;45.37;100956.22;5033429;28;20257;-70
2023/06/19 03:59:58;;;;;;;4.30;2.50;;;;;;;24.93;45.34;100964.72;5033795;28;20115;-68
2023/06/19 04:02:23;;;;;;;4.27;2.33;;;;;;;24.92;45.44;100956.88;5033842;28;20285;-70
2023/06/19 04:04:48;;;;;;;4.10;2.50;;;;;;;24.94;45.16;100968.22;5033826;28;20320;-73
2023/06/19 04:07:13;;;;;;;4.27;2.53;;;;;;;24.94;45.49;100971.72;5034068;28;20298;-74
2023/06/19 04:09:39;;;;;;;4.40;2.50;;;;;;;24.91;45.28;100968.53;5033126;28;20289;-71
2023/06/19 04:12:05;;;;;;;4.00;2.13;;;;;;;24.90;45.56;100965.06;5033824;28;20281;-71
2023/06/19 04:14:30;;;;;;;4.53;2.75;;;;;;;24.90;45.33;100970.38;5033501;28;20029;-69
2023/06/19 04:16:55;;;;;;;3.97;2.40;;;;;;;24.91;45.56;100974.72;5033449;28;20053;-71
2023/06/19 04:19:21;;;;;;;4.20;2.17;;;;;;;24.92;45.10;100981.69;5032215;28;20380;-71
2023/06/19 04:21:46;;;;;;;4.67;2.33;;;;;;;24.90;45.72;100991.72;5032895;28;20270;-70
2023/06/19 04:24:11;;;;;;;4.00;2.10;;;;;;;24.90;45.24;100985.56;5032817;28;20668;-73
2023/06/19 04:26:36;;;;;;;5.25;2.42;;;;;;;24.93;45.49;100990.56;5033284;28;20250;-70
2023/06/19 04:29:03;;;;;;;4.72;2.33;;;;;;;24.91;45.63;100989.88;5033376;28;20032;-72
2023/06/19 04:31:28;;;;;;;4.53;2.53;;;;;;;24.90;45.63;100990.88;5033240;28;20029;-73
2023/06/19 04:33:56;;;;;;;3.85;2.17;;;;;;;24.91;45.57;101000.53;5033073;28;20029;-70
2023/06/19 04:36:21;;;;;;;6.15;2.10;;;;;;;24.90;45.66;101001.53;5033443;28;20044;-70
2023/06/19 04:38:47;;;;;;;4.13;2.20;;;;;;;24.90;45.55;101009.53;5033206;28;20029;-71
2023/06/19 04:41:12;;;;;;;4.20;2.20;;;;;;;24.89;45.50;101003.34;5032793;28;20033;-69
2023/06/19 04:43:41;;;;;;;4.32;2.58;;;;;;;24.91;45.53;101009.38;5033046;28;20323;-72
2023/06/19 04:46:06;;;;;;;4.15;2.42;;;;;;;24.92;45.79;101007.53;5032428;28;20036;-69
2023/06/19 04:48:32;;;;;;;4.55;2.00;;;;;;;24.91;45.50;101009.38;5033021;28;20037;-69
2023/06/19 04:51:00;;;;;;;4.40;1.92;;;;;;;24.91;46.16;101014.72;5033028;28;20074;-70
2023/06/19 04:53:26;;;;;;;4.05;2.00;;;;;;;24.90;46.13;101006.88;5033221;28;20989;-71
2023/06/19 04:55:54;;;;;;;4.65;2.22;;;;;;;24.91;45.72;101016.53;5032728;28;20025;-72
2023/06/19 04:58:20;;;;;;;4.10;2.30;;;;;;;24.91;46.18;101011.19;5032774;28;20094;-71
2023/06/19 05:00:50;;;;;;;3.60;2.10;;;;;;;24.91;45.79;101021.84;5033291;28;20035;-71
2023/06/19 05:03:16;;;;;;;3.55;2.03;;;;;;;24.90;45.91;101014.88;5032044;28;20028;-71
2023/06/19 05:05:42;;;;;;;4.88;2.10;;;;;;;24.90;46.21;101014.88;5032753;28;20033;-73
2023/06/19 05:08:07;;;;;;;4.38;2.22;;;;;;;24.90;46.24;101012.22;5032537;28;20477;-71
2023/06/19 05:10:32;;;;;;;4.45;2.33;;;;;;;24.90;45.89;101015.69;5032132;28;20029;-70
2023/06/19 05:12:58;;;;;;;3.90;2.20;;;;;;;24.88;46.19;101015.03;5031481;28;20122;-74
2023/06/19 05:15:23;;;;;;;4.00;2.35;;;;;;;24.89;46.07;101022.03;5032926;28;20061;-70
2023/06/19 05:17:48;;;;;;;4.03;2.20;;;;;;;24.90;46.15;101028.19;5031950;28;20061;-70
2023/06/19 05:20:15;;;;;;;4.90;2.30;;;;;;;24.91;46.11;101029.84;5031766;28;20086;-73
2023/06/19 05:22:40;;;;;;;4.25;2.40;;;;;;;24.88;46.14;101031.03;5032722;28;20044;-70
2023/06/19 05:25:06;;;;;;;4.15;2.25;;;;;;;24.86;46.19;101030.34;5031647;28;20051;-73
2023/06/19 05:27:31;;;;;;;4.82;2.40;;;;;;;24.91;46.48;101043.19;5032754;28;20033;-77
2023/06/19 05:29:57;;;;;;;4.17;2.47;;;;;;;24.88;45.94;101030.19;5030213;28;20052;-71
2023/06/19 05:32:22;;;;;;;4.00;2.00;;;;;;;24.88;46.16;101035.50;5031792;28;20370;-72
2023/06/19 05:34:47;;;;;;;4.85;2.28;;;;;;;24.89;46.02;101043.34;5031899;28;20262;-72
2023/06/19 05:37:12;;;;;;;4.13;2.20;;;;;;;24.89;46.12;101037.19;5032052;28;20025;-75
2023/06/19 05:39:38;;;;;;;4.60;2.60;;;;;;;24.90;46.23;101038.88;5031582;28;20273;-70
2023/06/19 05:42:03;;;;;;;4.05;1.98;;;;;;;24.89;45.96;101038.00;5031659;28;20142;-72
2023/06/19 05:44:29;;;;;;;4.95;2.20;;;;;;;24.88;46.00;101046.16;5031445;28;20060;-71
2023/06/19 05:46:54;;;;;;;4.07;2.10;;;;;;;24.87;46.46;101041.84;5032512;28;20033;-74
2023/06/19 05:49:19;;;;;;;4.68;2.42;;;;;;;24.89;46.80;101048.69;5031258;28;20278;-70
2023/06/19 05:51:44;;;;;;;5.10;3.00;;;;;;;24.87;47.93;101048.00;5031578;28;20040;-72
2023/06/19 05:54:10;;;;;;;5.70;3.42;;;;;;;24.85;48.95;101051.81;5030479;28;20466;-71
2023/06/19 05:56:36;;;;;;;5.73;3.43;;;;;;;24.81;48.89;101038.00;5030978;28;20484;-73
2023/06/19 05:59:02;;;;;;;6.32;3.30;;;;;;;24.77;49.19;101050.84;5032012;28;20281;-73
2023/06/19 06:01:27;;;;;;;5.32;3.38;;;;;;;24.74;49.12;101045.00;5029954;28;20857;-73
2023/06/19 06:03:53;;;;;;;5.47;3.45;;;;;;;24.71;49.65;101045.34;5031522;28;20030;-70
2023/06/19 06:06:19;;;;;;;5.07;3.25;;;;;;;24.68;49.79;101058.97;5031568;28;20492;-70
2023/06/19 06:08:44;;;;;;;8.50;4.00;;;;;;;24.62;50.39;101068.44;5031334;28;20032;-70
2023/06/19 06:11:09;;;;;;;5.47;3.37;;;;;;;24.53;50.67;101062.25;5031000;28;20653;-73
2023/06/19 06:13:35;;;;;;;7.33;4.00;;;;;;;24.48;50.70;101066.38;5030905;28;20265;-72
2023/06/19 06:16:01;;;;;;;5.80;3.75;;;;;;;24.44;50.52;101068.53;5031552;28;21426;-70
2023/06/19 06:18:26;;;;;;;7.82;4.00;;;;;;;24.40;50.38;101086.66;5031067;28;20049;-70
2023/06/19 06:20:51;;;;;;;5.43;3.95;;;;;;;24.35;50.49;101091.63;5031060;28;20475;-72
2023/06/19 06:23:16;;;;;;;6.87;4.63;;;;;;;24.30;50.08;101090.44;5030894;28;20114;-72
2023/06/19 06:25:42;;;;;;;7.95;4.50;;;;;;;24.24;49.92;101095.44;5030937;28;20269;-72
2023/06/19 06:28:07;;;;;;;6.28;4.40;;;;;;;24.22;49.97;101089.41;5031514;28;20032;-72
2023/06/19 06:30:33;;;;;;;7.55;4.90;;;;;;;24.18;50.16;101092.53;5030699;28;20417;-72
2023/06/19 06:32:58;;;;;;;6.35;4.32;;;;;;;24.17;50.16;101093.56;5030992;28;20466;-72
2023/06/19 06:35:23;;;;;;;6.10;3.95;;;;;;;24.16;50.09;101102.53;5031191;28;20466;-73
2023/06/19 06:37:49;;;;;;;6.95;4.20;;;;;;;24.15;50.00;101109.69;5030683;28;20037;-71
2023/06/19 06:40:15;;;;;;;5.97;4.53;;;;;;;24.15;50.24;101108.81;5030767;28;20028;-71
2023/06/19 06:42:41;;;;;;;6.88;5.20;;;;;;;24.14;50.19;101118.66;5030404;28;20032;-71
2023/06/19 06:45:07;;;;;;;6.85;5.10;;;;;;;24.15;50.10;101116.81;5031333;28;20084;-71
2023/06/19 06:47:33;;;;;;;7.22;5.40;;;;;;;24.09;49.75;101105.00;5031205;28;20067;-70
2023/06/19 06:49:58;;;;;;;7.40;5.13;;;;;;;24.11;49.55;101120.81;5034011;28;20071;-68
2023/06/19 06:52:24;;;;;;;7.63;4.75;;;;;;;24.10;49.67;101133.28;5029258;28;20128;-68
2023/06/19 06:54:49;;;;;;;6.65;5.20;;;;;;;24.07;49.74;101120.28;5030346;28;20120;-69
2023/06/19 06:57:14;;;;;;;6.40;4.93;;;;;;;24.15;49.59;101127.47;5029860;28;20382;-68
2023/06/19 06:59:40;;;;;;;6.90;5.17;;;;;;;24.15;49.32;101136.31;5031635;28;20039;-71
2023/06/19 07:02:05;;;;;;;7.57;4.70;;;;;;;24.13;49.48;101126.81;5030740;28;20739;-70
2023/06/19 07:04:31;;;;;;;7.53;5.20;;;;;;;24.12;49.96;101131.31;5031160;28;20349;-68
2023/06/19 07:06:58;;;;;;;6.88;5.22;;;;;;;24.11;50.18;101134.94;5030937;28;20038;-71
2023/06/19 07:09:23;;;;;;;6.53;4.65;;;;;;;24.11;50.00;101142.94;5029112;28;20030;-70
2023/06/19 07:11:49;;;;;;;7.82;5.43;;;;;;;24.13;49.20;101145.44;5030588;28;20094;-70
2023/06/19 07:14:17;;;;;;;7.40;5.28;;;;;;;24.13;49.29;101154.25;5030495;28;20403;-70
2023/06/19 07:16:43;;;;;;;7.97;5.82;;;;;;;24.11;48.64;101150.91;5029765;28;20044;-71
2023/06/19 07:19:08;;;;;;;8.20;5.65;;;;;;;24.11;48.40;101153.56;5029286;28;20033;-70
2023/06/19 07:21:34;;;;;;;7.18;5.57;;;;;;;24.09;48.13;101152.91;5030236;28;20099;-70
2023/06/19 07:23:59;;;;;;;6.70;5.78;;;;;;;24.11;48.33;101156.25;5029031;28;20033;-72
2023/06/19 07:26:25;;;;;;;7.30;5.38;;;;;;;24.09;48.66;101164.38;5030176;28;20124;-70
2023/06/19 07:28:50;;;;;;;7.00;5.13;;;;;;;24.09;48.54;101163.56;5030375;28;20037;-69
2023/06/19 07:31:16;;;;;;;7.80;5.43;;;;;;;24.09;48.73;101159.06;5030259;28;20052;-70
2023/06/19 07:33:41;;;;;;;6.95;5.47;;;;;;;24.08;49.04;101159.22;5030460;28;20044;-70
2023/06/19 07:36:06;;;;;;;8.15;4.43;;;;;;;24.07;49.03;101162.88;5030597;28;20069;-72
2023/06/19 07:38:32;;;;;;;6.68;4.50;;;;;;;24.17;48.79;101162.78;5028494;28;20037;-68
2023/06/19 07:40:57;;;;;;;7.10;4.50;;;;;;;24.23;48.65;101170.97;5029888;28;20117;-68
2023/06/19 07:43:23;;;;;;;5.97;4.30;;;;;;;24.31;48.55;101179.97;5028236;28;20128;-67
2023/06/19 07:45:49;;;;;;;6.95;3.97;;;;;;;24.35;48.68;101174.19;5029990;28;20033;-67
2023/06/19 07:48:14;;;;;;;5.70;3.88;;;;;;;24.40;48.74;101169.25;5029925;28;20099;-69
2023/06/19 07:50:40;;;;;;;5.82;3.78;;;;;;;24.47;48.41;101168.59;5029064;28;20065;-69
2023/06/19 07:53:05;;;;;;;6.57;4.45;;;;;;;24.49;48.18;101163.94;5028954;28;20056;-68
2023/06/19 07:55:30;;;;;;;5.37;3.80;;;;;;;24.51;47.96;101153.97;5030945;28;20029;-67
2023/06/19 07:57:56;;;;;;;4.90;3.70;;;;;;;24.61;48.20;101174.19;5033427;28;21280;-68
2023/06/19 08:00:24;;;;;;;8.18;4.03;;;;;;;24.62;48.06;101170.56;5032711;28;20021;-68
2023/06/19 08:02:49;;;;;;;6.13;4.00;;;;;;;24.67;48.07;101169.22;5033143;28;20033;-68
2023/06/19 08:05:15;;;;;;;5.57;3.60;;;;;;;24.68;47.64;101171.72;5032727;28;20511;-68
2023/06/19 08:07:41;;;;;;;5.50;4.00;;;;;;;24.69;47.92;101180.53;5033309;28;20613;-67
2023/06/19 08:10:07;;;;;;;5.20;3.95;;;;;;;24.72;47.38;101183.75;5032967;28;20039;-68
2023/06/19 08:12:32;;;;;;;5.15;3.47;;;;;;;24.71;47.52;101174.06;5032998;28;20044;-68
2023/06/19 08:14:58;;;;;;;4.97;3.63;;;;;;;24.73;47.56;101174.72;5033803;28;20037;-66
2023/06/19 08:17:23;;;;;;;6.63;4.13;;;;;;;24.75;47.32;101174.56;5033339;28;20063;-68
2023/06/19 08:19:49;;;;;;;5.73;4.10;;;;;;;24.77;46.72;101178.75;5033075;28;20040;-67
2023/06/19 08:22:14;;;;;;;5.60;3.90;;;;;;;24.75;47.22;101164.78;5032725;28;20777;-67
2023/06/19 08:24:40;;;;;;;5.63;3.22;;;;;;;24.78;47.34;101179.59;5032149;28;20029;-66
2023/06/19 08:27:06;;;;;;;6.28;3.53;;;;;;;24.77;47.13;101168.09;5032140;28;20025;-68
2023/06/19 08:29:31;;;;;;;6.15;3.47;;;;;;;24.78;46.90;101175.09;5032168;28;20030;-71
2023/06/19 08:31:57;;;;;;;6.03;3.42;;;;;;;24.81;46.95;101180.09;5031792;28;20104;-67
2023/06/19 08:34:22;;;;;;;5.67;3.90;;;;;;;24.83;47.01;101187.09;5032008;28;20026;-68
2023/06/19 08:36:47;;;;;;;5.30;3.60;;;;;;;24.78;47.02;101180.44;5040085;28;20363;-70
2023/06/19 08:39:13;;;;;;;6.72;4.07;;;;;;;24.84;46.81;101202.09;5030887;28;20034;-69
2023/06/19 08:41:38;;;;;;;6.10;4.15;;;;;;;24.84;47.06;101194.13;5032475;28;20059;-70
2023/06/19 08:44:04;;;;;;;6.03;4.13;;;;;;;24.88;47.41;101206.09;5031982;28;20521;-68
2023/06/19 08:46:30;;;;;;;5.00;3.70;;;;;;;24.89;47.09;101200.63;5032848;28;20416;-68
2023/06/19 08:48:55;;;;;;;6.93;4.00;;;;;;;24.88;47.16;101195.44;5031664;28;20034;-70
2023/06/19 08:51:21;;;;;;;7.68;3.53;;;;;;;24.90;47.29;101204.13;5032884;28;20029;-70
2023/06/19 08:53:55;;;;;;;5.43;3.42;;;;;;;24.89;47.54;101203.28;5032167;28;20037;-69
2023/06/19 08:56:20;;;;;;;5.82;3.40;;;;;;;24.95;47.38;101215.97;5030873;28;20037;-68
2023/06/19 08:58:45;;;;;;;5.00;3.17;;;;;;;24.96;47.19;101220.31;5031925;28;20059;-70
2023/06/19 09:01:13;;;;;;;4.65;3.20;;;;;;;24.95;47.12;101215.97;5032108;28;21330;-67
2023/06/19 09:03:38;;;;;;;6.50;3.45;;;;;;;24.98;46.96;101218.31;5030471;28;20147;-67
2023/06/19 09:06:06;;;;;;;6.07;3.50;;;;;;;24.99;47.29;101224.47;5031369;28;20264;-71
2023/06/19 09:08:31;;;;;;;8.48;3.90;;;;;;;25.02;46.98;101218.00;5032329;28;20037;-69
2023/06/19 09:10:59;;;;;;;5.97;3.28;;;;;;;25.02;47.09;101221.47;5033059;28;20057;-71
2023/06/19 09:13:24;;;;;;;4.72;3.50;;;;;;;25.04;46.77;101221.31;5032340;28;20044;-70
2023/06/19 09:16:04;;;;;;;4.95;3.33;;;;;;;25.04;46.92;101211.50;5032758;28;20033;-69
2023/06/19 09:18:31;;;;;;;6.20;3.92;;;;;;;25.08;46.99;101226.19;5031671;28;20745;-68
2023/06/19 09:20:56;;;;;;;6.90;3.83;;;;;;;25.11;46.75;101233.03;5031461;28;20037;-68
2023/06/19 09:23:22;;;;;;;6.75;3.97;;;;;;;25.11;46.40;101238.38;5032590;28;20041;-68
2023/06/19 09:25:51;;;;;;;5.20;3.50;;;;;;;25.13;46.28;101244.34;5031833;28;20436;-68
2023/06/19 09:28:21;;;;;;;5.03;3.47;;;;;;;25.11;46.47;101233.84;5030183;28;20555;-72
2023/06/19 09:30:56;;;;;;;6.57;4.10;;;;;;;25.12;46.39;101234.72;5029179;28;20068;-72
2023/06/19 09:33:21;;;;;;;6.88;3.75;;;;;;;25.12;46.05;101240.88;5030570;28;20044;-67
2023/06/19 09:35:49;;;;;;;6.95;3.80;;;;;;;25.12;45.99;101248.88;5031712;28;20079;-71
2023/06/19 09:38:17;;;;;;;6.35;3.70;;;;;;;25.12;45.92;101254.19;5031890;28;20243;-69
2023/06/19 09:40:45;;;;;;;6.47;4.20;;;;;;;25.12;46.21;101245.38;5032254;28;20441;-68
2023/06/19 09:43:12;;;;;;;7.28;3.65;;;;;;;25.14;46.23;101259.38;5030284;28;20148;-68
2023/06/19 09:45:39;;;;;;;6.30;3.80;;;;;;;25.14;46.11;101254.88;5030420;28;20033;-67
2023/06/19 09:48:12;;;;;;;6.90;3.80;;;;;;;25.10;46.59;101242.88;5030529;28;20098;-66
2023/06/19 09:50:40;;;;;;;6.75;4.40;;;;;;;25.12;46.50;101243.53;5030488;28;20048;-68
2023/06/19 09:53:05;;;;;;;6.95;3.92;;;;;;;25.10;46.73;101242.88;5030529;28;20044;-68
2023/06/19 09:55:32;;;;;;;6.10;3.70;;;;;;;25.11;46.56;101244.53;5031085;28;20033;-68
2023/06/19 09:57:59;;;;;;;5.40;3.45;;;;;;;25.16;46.48;101252.88;5030966;28;20060;-68
2023/06/19 10:00:30;;;;;;;6.30;3.25;;;;;;;25.18;46.40;101250.03;5030734;28;20114;-68
2023/06/19 10:02:58;;;;;;;7.20;3.95;;;;;;;25.16;46.46;101252.03;5030157;28;20083;-69
2023/06/19 10:05:30;;;;;;;6.60;4.10;;;;;;;25.14;46.54;101260.19;5030801;28;20081;-66
2023/06/19 10:07:59;;;;;;;6.30;4.03;;;;;;;25.17;46.59;101253.72;5030262;28;20171;-67
2023/06/19 10:10:26;;;;;;;8.38;3.67;;;;;;;25.20;46.41;101260.53;5030911;28;20040;-68
2023/06/19 10:13:10;;;;;;;6.28;3.90;;;;;;;25.20;46.58;101258.72;5031676;28;20025;-67
2023/06/19 10:15:42;;;;;;;6.85;4.15;;;;;;;25.17;46.53;101257.22;5030503;28;20029;-66
2023/06/19 10:18:07;;;;;;;5.50;3.38;;;;;;;25.22;46.44;101259.41;5030103;28;20504;-67
2023/06/19 10:20:37;;;;;;;6.47;3.63;;;;;;;25.21;46.85;101259.56;5030711;28;20030;-71
2023/06/19 10:23:03;;;;;;;6.90;4.72;;;;;;;25.22;46.57;101266.56;5031218;28;20278;-68
2023/06/19 10:25:33;;;;;;;7.72;3.90;;;;;;;25.24;46.59;101256.56;5029314;28;20028;-68
2023/06/19 10:27:59;;;;;;;5.85;3.90;;;;;;;25.29;46.21;101259.63;5030798;28;20102;-72
2023/06/19 10:30:24;;;;;;;8.05;4.00;;;;;;;25.26;46.37;101262.56;5030504;28;21228;-68
2023/06/19 10:32:50;;;;;;;7.03;3.90;;;;;;;25.27;46.26;101262.41;5030122;28;20032;-68
2023/06/19 10:35:17;;;;;;;7.05;3.72;;;;;;;25.27;46.71;101262.41;5030747;28;20029;-67
2023/06/19 10:37:43;;;;;;;4.80;3.35;;;;;;;25.24;46.32;101260.06;5030120;28;20124;-69
2023/06/19 10:40:10;;;;;;;5.82;3.65;;;;;;;25.28;46.54;101265.97;5030779;28;20031;-67
2023/06/19 10:42:45;;;;;;;6.00;3.60;;;;;;;25.30;46.25;101269.28;5030327;28;20060;-67
2023/06/19 10:45:12;;;;;;;6.28;4.00;;;;;;;25.32;46.11;101262.78;5030038;28;20069;-68
2023/06/19 10:47:39;;;;;;;6.03;3.95;;;;;;;25.35;45.88;101266.97;5030439;28;20128;-70
2023/06/19 10:50:09;;;;;;;5.82;3.97;;;;;;;25.33;46.20;101268.97;5028992;28;20480;-69
2023/06/19 10:52:35;;;;;;;7.18;3.85;;;;;;;25.36;45.75;101263.31;5029657;28;20057;-70
2023/06/19 10:55:00;;;;;;;5.30;3.67;;;;;;;25.35;45.82;101262.47;5029081;28;20056;-69
2023/06/19 10:57:29;;;;;;;6.80;4.00;;;;;;;25.34;45.65;101251.94;5031242;28;20270;-68
2023/06/19 10:59:55;;;;;;;6.43;4.10;;;;;;;25.37;45.80;101248.97;5030542;28;20273;-74
2023/06/19 11:02:21;;;;;;;5.90;3.92;;;;;;;25.36;45.78;101247.31;5029460;28;20036;-70
2023/06/19 11:04:46;;;;;;;7.20;4.05;;;;;;;25.34;46.04;101242.13;5027666;28;20033;-70
2023/06/19 11:07:12;;;;;;;5.93;4.07;;;;;;;25.36;46.08;101255.31;5029745;28;20033;-74
2023/06/19 11:09:37;;;;;;;5.97;3.97;;;;;;;25.35;45.94;101248.28;5029463;28;20060;-68
2023/06/19 11:12:03;;;;;;;6.50;3.90;;;;;;;25.35;46.12;101248.28;5029713;28;20746;-69
2023/06/19 11:14:30;;;;;;;6.40;4.20;;;;;;;25.34;46.32;101244.81;5028779;28;20281;-69
2023/06/19 11:16:55;;;;;;;16.35;4.28;;;;;;;25.36;46.25;101247.31;5028563;28;20057;-69
2023/06/19 11:19:23;;;;;;;6.30;3.90;;;;;;;25.34;46.31;101234.13;5030444;28;20086;-68